Time;durP1;ratioP1;P1;durP2;ratioP2;P2;SDS_P1;SDS_P2;PMS_P1;PMS_P2;Temp;Humidity;BMP_temperature;BMP_pressure;BME280_temperature;BME280_humidity;BME280_pressure;Samples;Min_cycle;Max_cycle;Signal;HPM_P1;HPM_P2
2022/05/06 00:01:46;;;;;;;28.87;22.00;;;12.70;99.90;;;;;;5012064;28;20264;-39
2022/05/06 00:04:14;;;;;;;27.57;19.17;;;12.70;99.90;;;;;;5011632;28;20218;-39
2022/05/06 00:06:40;;;;;;;24.37;18.00;;;12.70;99.90;;;;;;5011888;28;20272;-40
2022/05/06 00:09:06;;;;;;;20.30;16.33;;;12.70;99.90;;;;;;5011355;28;20221;-40
2022/05/06 00:11:32;;;;;;;21.17;17.47;;;12.60;99.90;;;;;;4995583;28;20222;-40
2022/05/06 00:13:58;;;;;;;22.97;17.97;;;12.60;99.90;;;;;;4995434;28;20203;-39
2022/05/06 00:16:25;;;;;;;25.77;18.30;;;12.60;99.90;;;;;;5011843;28;20189;-39
2022/05/06 00:18:52;;;;;;;22.20;18.67;;;12.60;99.90;;;;;;4995216;28;20183;-41
2022/05/06 00:21:19;;;;;;;27.20;18.87;;;12.60;99.90;;;;;;4995676;28;20174;-41
2022/05/06 00:23:45;;;;;;;26.57;19.27;;;12.60;99.90;;;;;;5011665;28;20202;-41
2022/05/06 00:26:12;;;;;;;26.87;20.27;;;12.60;99.90;;;;;;5011809;28;20646;-39
2022/05/06 00:28:38;;;;;;;28.03;19.90;;;12.60;99.90;;;;;;5012685;28;20266;-38
2022/05/06 00:31:04;;;;;;;30.70;20.20;;;12.60;99.90;;;;;;5010628;28;20187;-42
2022/05/06 00:33:31;;;;;;;28.33;21.23;;;12.60;99.90;;;;;;4995142;28;20276;-41
2022/05/06 00:35:58;;;;;;;25.30;19.50;;;12.50;99.90;;;;;;5011121;28;20675;-41
2022/05/06 00:38:25;;;;;;;26.90;19.10;;;12.50;99.90;;;;;;4995262;28;20193;-41
2022/05/06 00:40:52;;;;;;;27.40;19.50;;;12.50;99.90;;;;;;5011368;28;20178;-39
2022/05/06 00:43:19;;;;;;;24.83;19.33;;;12.50;99.90;;;;;;4994869;28;20255;-37
2022/05/06 00:45:48;;;;;;;26.80;18.33;;;12.60;99.90;;;;;;5012527;28;20174;-37
2022/05/06 00:48:17;;;;;;;23.67;18.30;;;12.50;99.90;;;;;;5011299;28;20182;-41
2022/05/06 00:50:43;;;;;;;21.40;17.17;;;12.50;99.90;;;;;;5010991;28;20216;-39
2022/05/06 00:53:12;;;;;;;26.50;18.77;;;12.40;99.90;;;;;;5011141;28;20202;-39
2022/05/06 00:55:38;;;;;;;26.90;19.87;;;12.40;99.90;;;;;;5011199;28;20222;-41
2022/05/06 00:58:04;;;;;;;27.70;20.20;;;12.40;99.90;;;;;;5011043;28;20179;-39
2022/05/06 01:00:30;;;;;;;25.83;19.90;;;12.50;99.90;;;;;;5010691;28;20194;-39
2022/05/06 01:02:56;;;;;;;24.90;19.13;;;12.50;99.90;;;;;;4994461;28;20203;-39
2022/05/06 01:05:22;;;;;;;23.77;19.40;;;12.50;99.90;;;;;;5011315;28;20186;-39
2022/05/06 01:07:50;;;;;;;27.30;19.10;;;12.50;99.90;;;;;;5010898;28;20186;-41
2022/05/06 01:10:18;;;;;;;27.60;18.97;;;12.40;99.90;;;;;;4994274;28;20208;-40
2022/05/06 01:12:46;;;;;;;25.00;18.70;;;12.40;99.90;;;;;;4994390;28;20272;-42
2022/05/06 01:15:18;;;;;;;23.47;18.57;;;12.50;99.90;;;;;;5010657;28;20321;-41
2022/05/06 01:17:44;;;;;;;24.00;18.53;;;12.50;99.90;;;;;;5012004;28;20249;-39
2022/05/06 01:20:11;;;;;;;26.67;19.43;;;12.50;99.90;;;;;;5010750;28;20184;-41
2022/05/06 01:22:38;;;;;;;23.60;18.60;;;12.40;99.90;;;;;;5010612;28;20260;-39
2022/05/06 01:25:04;;;;;;;24.90;20.27;;;12.40;99.90;;;;;;5010542;28;20193;-39
2022/05/06 01:27:34;;;;;;;25.60;19.73;;;12.40;99.90;;;;;;4994371;28;20265;-41
2022/05/06 01:30:02;;;;;;;27.47;18.93;;;12.40;99.90;;;;;;5010210;28;20225;-39
2022/05/06 01:32:29;;;;;;;27.17;19.67;;;12.40;99.90;;;;;;4994158;28;20197;-40
2022/05/06 01:34:57;;;;;;;22.33;19.03;;;12.40;99.90;;;;;;5010425;28;20214;-38
2022/05/06 01:37:25;;;;;;;24.80;18.27;;;12.40;99.90;;;;;;4994280;28;20229;-38
2022/05/06 01:39:55;;;;;;;22.80;17.70;;;12.30;99.90;;;;;;4994058;28;20198;-41
2022/05/06 01:42:24;;;;;;;25.43;17.97;;;12.30;99.90;;;;;;4994271;28;20256;-42
2022/05/06 01:44:57;;;;;;;20.60;17.30;;;12.30;99.90;;;;;;4994581;28;20656;-41
2022/05/06 01:47:26;;;;;;;25.40;18.87;;;12.30;99.90;;;;;;4994146;28;20186;-39
2022/05/06 01:49:58;;;;;;;23.17;17.53;;;12.30;99.90;;;;;;5010089;28;20187;-38
2022/05/06 01:52:25;;;;;;;23.20;17.80;;;12.30;99.90;;;;;;4993867;28;20273;-39
2022/05/06 01:54:52;;;;;;;23.07;17.90;;;12.40;99.90;;;;;;5009971;28;20206;-41
2022/05/06 01:57:19;;;;;;;22.90;18.70;;;12.40;99.90;;;;;;4993934;28;20179;-39
2022/05/06 01:59:45;;;;;;;23.63;18.30;;;12.40;99.90;;;;;;4993584;28;20188;-40
2022/05/06 02:02:18;;;;;;;22.50;17.87;;;12.40;99.90;;;;;;4994687;28;20186;-42
2022/05/06 02:07:32;;;;;;;23.67;17.57;;;12.30;99.90;;;;;;5010008;28;20184;-41
2022/05/06 02:09:59;;;;;;;24.27;17.07;;;12.30;99.90;;;;;;4993806;28;20189;-40
2022/05/06 02:12:27;;;;;;;21.83;17.40;;;12.40;99.90;;;;;;4993912;28;20197;-43
2022/05/06 02:15:02;;;;;;;22.57;17.93;;;12.40;99.90;;;;;;4994372;28;20214;-40
2022/05/06 02:17:42;;;;;;;21.73;16.73;;;12.30;99.90;;;;;;5009979;28;20190;-41
2022/05/06 02:20:19;;;;;;;21.33;16.83;;;12.40;99.90;;;;;;5010177;28;20206;-39
2022/05/06 02:23:08;;;;;;;20.73;17.30;;;12.30;99.90;;;;;;4991530;28;20215;-38
2022/05/06 02:26:03;;;;;;;22.60;17.30;;;12.30;99.90;;;;;;4989300;28;20181;-41
2022/05/06 02:28:38;;;;;;;21.93;17.63;;;12.20;99.90;;;;;;4995112;28;20568;-39
2022/05/06 02:33:52;;;;;;;23.97;18.57;;;12.30;99.90;;;;;;5009559;28;20224;-41
2022/05/06 02:36:45;;;;;;;26.73;19.17;;;12.30;99.90;;;;;;4989758;28;20202;-41
2022/05/06 02:39:19;;;;;;;21.83;18.30;;;12.30;99.90;;;;;;5009511;28;20180;-42
2022/05/06 02:41:47;;;;;;;23.13;18.63;;;12.30;99.90;;;;;;5008337;28;20182;-38
2022/05/06 02:44:17;;;;;;;23.33;18.43;;;12.40;99.90;;;;;;5009533;28;20205;-41
2022/05/06 02:46:45;;;;;;;22.97;18.07;;;12.40;99.90;;;;;;4993457;28;20269;-39
2022/05/06 02:49:12;;;;;;;23.70;18.60;;;12.40;99.90;;;;;;4992951;28;20268;-36
2022/05/06 02:51:39;;;;;;;25.33;18.70;;;12.40;99.90;;;;;;4993337;28;20212;-41
2022/05/06 02:54:07;;;;;;;22.60;18.53;;;12.40;99.90;;;;;;4995844;28;20221;-40
2022/05/06 02:56:35;;;;;;;22.97;18.00;;;12.40;99.90;;;;;;5013562;28;20180;-40
2022/05/06 02:59:04;;;;;;;21.73;17.43;;;12.40;99.90;;;;;;4997160;28;20184;-41
2022/05/06 03:01:33;;;;;;;23.10;18.43;;;12.40;99.90;;;;;;4978080;28;20212;-42
2022/05/06 03:04:04;;;;;;;21.53;18.73;;;12.30;99.90;;;;;;4978007;28;20208;-40
2022/05/06 03:06:31;;;;;;;22.47;18.23;;;12.40;99.90;;;;;;4993382;28;20176;-40
2022/05/06 03:08:57;;;;;;;21.20;18.90;;;12.50;99.90;;;;;;4993461;28;20236;-41
2022/05/06 03:11:30;;;;;;;22.80;17.17;;;12.50;99.90;;;;;;4994610;28;20552;-42
2022/05/06 03:14:02;;;;;;;19.20;16.33;;;12.40;99.90;;;;;;4993181;28;20281;-40
2022/05/06 03:16:35;;;;;;;21.50;17.20;;;12.40;99.90;;;;;;4993277;28;20178;-41
2022/05/06 03:19:01;;;;;;;26.07;18.90;;;12.40;99.90;;;;;;4994585;28;20187;-40
2022/05/06 03:21:27;;;;;;;25.43;19.30;;;12.40;99.90;;;;;;4993489;28;20378;-40
2022/05/06 03:23:53;;;;;;;24.30;19.00;;;12.30;99.90;;;;;;4992895;28;20195;-40
2022/05/06 03:26:19;;;;;;;23.10;17.70;;;12.30;99.90;;;;;;4993099;28;20274;-40
2022/05/06 03:28:46;;;;;;;24.80;19.47;;;12.30;99.90;;;;;;4993060;28;20726;-41
2022/05/06 03:31:14;;;;;;;23.20;18.53;;;12.30;99.90;;;;;;5010523;28;20555;-41
2022/05/06 03:33:49;;;;;;;24.57;17.87;;;12.30;99.90;;;;;;4997466;28;20211;-41
2022/05/06 03:36:22;;;;;;;20.90;17.60;;;12.20;99.90;;;;;;4997089;28;20197;-40
2022/05/06 03:38:54;;;;;;;23.10;17.83;;;12.20;99.90;;;;;;4996936;28;20233;-42
2022/05/06 03:41:24;;;;;;;24.30;17.27;;;12.20;99.90;;;;;;5012279;28;20270;-40
2022/05/06 03:43:51;;;;;;;21.97;18.80;;;12.10;99.90;;;;;;4996657;28;20201;-40
2022/05/06 03:46:20;;;;;;;23.97;18.50;;;12.10;99.90;;;;;;4996899;28;20186;-40
2022/05/06 03:48:48;;;;;;;23.37;18.03;;;12.10;99.90;;;;;;4996232;28;20180;-42
2022/05/06 03:51:21;;;;;;;25.57;19.33;;;12.20;99.90;;;;;;4996245;28;20178;-41
2022/05/06 03:53:52;;;;;;;23.73;17.90;;;12.20;99.90;;;;;;4996222;28;20199;-41
2022/05/06 03:56:22;;;;;;;27.47;19.20;;;12.20;99.90;;;;;;4996114;28;20181;-38
2022/05/06 03:58:50;;;;;;;26.57;19.23;;;12.20;99.90;;;;;;4995689;28;20210;-42
2022/05/06 04:01:18;;;;;;;23.33;18.13;;;12.20;99.90;;;;;;4995812;28;20190;-42
2022/05/06 04:03:48;;;;;;;26.00;19.90;;;12.20;99.90;;;;;;5017915;23;20235;-37
2022/05/06 04:06:15;;;;;;;26.50;20.73;;;12.20;99.90;;;;;;4994180;28;20332;-36
2022/05/06 04:08:47;;;;;;;23.30;18.20;;;12.20;99.90;;;;;;5011889;28;20206;-39
2022/05/06 04:11:14;;;;;;;26.57;19.60;;;12.30;99.90;;;;;;5028525;28;20189;-36
2022/05/06 04:13:43;;;;;;;25.57;18.23;;;12.30;99.90;;;;;;5012359;28;20181;-36
2022/05/06 04:16:09;;;;;;;25.93;19.23;;;12.20;99.90;;;;;;5011717;28;20218;-36
2022/05/06 04:18:36;;;;;;;24.07;19.10;;;12.30;99.90;;;;;;4995543;28;20232;-38
2022/05/06 04:23:48;;;;;;;25.77;19.43;;;12.30;99.90;;;;;;5011723;28;20190;-37
2022/05/06 04:26:15;;;;;;;25.37;18.87;;;12.30;99.90;;;;;;5011505;28;20203;-40
2022/05/06 04:28:50;;;;;;;29.17;18.80;;;12.30;99.90;;;;;;4996240;28;20281;-40
2022/05/06 04:31:17;;;;;;;24.67;18.90;;;12.30;99.90;;;;;;4995256;28;20189;-37
2022/05/06 04:33:44;;;;;;;22.53;17.13;;;12.30;99.90;;;;;;4995392;28;20182;-42
2022/05/06 04:36:21;;;;;;;29.43;20.27;;;12.20;99.90;;;;;;4996918;28;20187;-37
2022/05/06 04:38:52;;;;;;;24.50;17.63;;;12.20;99.90;;;;;;4995568;28;20186;-39
2022/05/06 04:41:19;;;;;;;24.97;18.20;;;12.20;99.90;;;;;;4995189;28;20187;-41
2022/05/06 04:43:46;;;;;;;26.67;18.80;;;12.30;99.90;;;;;;4994881;28;20562;-37
2022/05/06 04:46:12;;;;;;;24.97;19.27;;;12.30;99.90;;;;;;5011638;28;20185;-42
2022/05/06 04:48:39;;;;;;;25.53;18.67;;;12.20;99.90;;;;;;5011557;28;20380;-41
2022/05/06 04:51:10;;;;;;;25.00;18.17;;;12.20;99.90;;;;;;4995508;28;20189;-38
2022/05/06 04:53:36;;;;;;;28.57;18.83;;;12.20;99.90;;;;;;4994871;28;20177;-40
2022/05/06 04:56:02;;;;;;;21.87;17.87;;;12.20;99.90;;;;;;5011091;28;20248;-37
2022/05/06 04:58:35;;;;;;;25.23;18.07;;;12.30;99.90;;;;;;4995434;28;20187;-37
2022/05/06 05:01:04;;;;;;;25.60;17.77;;;12.30;99.90;;;;;;4995239;28;20641;-39
2022/05/06 05:03:30;;;;;;;24.37;18.20;;;12.40;99.90;;;;;;4994684;28;20235;-38
2022/05/06 05:05:59;;;;;;;22.83;17.07;;;12.40;99.90;;;;;;5011092;28;20201;-37
2022/05/06 05:08:25;;;;;;;24.63;17.90;;;12.40;99.90;;;;;;4994806;28;20198;-40
2022/05/06 05:10:51;;;;;;;23.10;18.00;;;12.40;99.90;;;;;;4994387;28;20256;-38
2022/05/06 05:13:21;;;;;;;23.43;17.97;;;12.50;99.90;;;;;;4994751;28;20193;-39
2022/05/06 05:15:47;;;;;;;22.43;17.03;;;12.50;99.90;;;;;;5010465;28;20242;-38
2022/05/06 05:18:13;;;;;;;21.37;17.00;;;12.50;99.90;;;;;;5010611;28;20277;-41
2022/05/06 05:20:40;;;;;;;22.63;17.30;;;12.50;99.90;;;;;;4994442;28;20181;-36
2022/05/06 05:23:06;;;;;;;24.13;17.33;;;12.60;99.90;;;;;;4993978;28;20186;-42
2022/05/06 05:25:35;;;;;;;24.60;17.80;;;12.60;99.90;;;;;;4994303;28;20287;-37
2022/05/06 05:28:02;;;;;;;27.57;17.87;;;12.60;99.90;;;;;;4994402;28;20209;-38
2022/05/06 05:30:34;;;;;;;26.17;17.60;;;12.60;99.90;;;;;;5010314;28;20192;-38
2022/05/06 05:33:02;;;;;;;21.60;17.07;;;12.70;99.90;;;;;;4994115;28;20186;-40
2022/05/06 05:35:29;;;;;;;21.97;17.47;;;12.70;99.90;;;;;;5010219;28;20710;-37
2022/05/06 05:38:00;;;;;;;20.07;16.80;;;12.80;99.90;;;;;;4994644;28;20189;-37
2022/05/06 05:40:27;;;;;;;23.63;17.43;;;12.90;99.90;;;;;;4993979;28;20289;-40
2022/05/06 05:42:54;;;;;;;20.90;16.10;;;12.90;99.90;;;;;;4994050;28;20283;-36
2022/05/06 05:48:21;;;;;;;22.27;17.47;;;12.90;99.90;;;;;;5010924;28;20178;-37
2022/05/06 05:50:52;;;;;;;20.40;15.77;;;12.90;99.90;;;;;;5012368;28;20270;-40
2022/05/06 05:53:24;;;;;;;23.27;16.83;;;12.90;99.90;;;;;;5010500;28;20198;-38
2022/05/06 05:55:52;;;;;;;20.27;16.17;;;12.90;99.90;;;;;;4993304;28;20214;-37
2022/05/06 05:58:23;;;;;;;23.57;18.03;;;12.90;99.90;;;;;;4994026;28;20182;-38
2022/05/06 06:00:50;;;;;;;25.93;18.00;;;12.90;99.90;;;;;;4993539;28;20182;-38
2022/05/06 06:03:17;;;;;;;24.33;18.67;;;12.90;99.90;;;;;;5009291;28;20175;-39
2022/05/06 06:05:44;;;;;;;21.70;19.03;;;12.90;99.90;;;;;;4993694;28;20225;-36
2022/05/06 06:08:11;;;;;;;24.23;18.10;;;12.80;99.90;;;;;;4993760;28;20269;-37
2022/05/06 06:10:39;;;;;;;23.27;17.43;;;12.90;99.90;;;;;;4993538;28;20750;-37
2022/05/06 06:13:09;;;;;;;24.67;19.33;;;12.90;99.90;;;;;;4994199;28;20183;-36
2022/05/06 06:15:39;;;;;;;22.43;17.27;;;12.80;99.90;;;;;;4994413;28;20225;-36
2022/05/06 06:18:06;;;;;;;21.87;15.23;;;12.80;99.90;;;;;;4994106;28;20182;-37
2022/05/06 06:20:33;;;;;;;18.17;15.30;;;12.70;99.90;;;;;;5009658;28;20209;-36
2022/05/06 06:22:59;;;;;;;17.10;15.30;;;12.70;99.90;;;;;;5011176;28;20182;-36
2022/05/06 06:25:26;;;;;;;18.00;14.90;;;12.70;99.90;;;;;;4993551;28;20230;-37
2022/05/06 06:27:55;;;;;;;18.83;14.70;;;12.70;99.90;;;;;;4994417;28;20531;-36
2022/05/06 06:30:21;;;;;;;19.87;15.97;;;12.70;99.90;;;;;;5013852;28;20204;-37
2022/05/06 06:32:48;;;;;;;19.30;14.90;;;12.70;99.90;;;;;;4996258;28;20209;-36
2022/05/06 06:35:14;;;;;;;18.60;15.13;;;12.70;99.90;;;;;;4995583;28;20225;-37
2022/05/06 06:37:48;;;;;;;19.73;15.00;;;12.60;99.90;;;;;;4996705;28;20244;-37
2022/05/06 06:40:15;;;;;;;19.07;15.00;;;12.60;99.90;;;;;;4995696;28;20202;-38
2022/05/06 06:42:42;;;;;;;18.00;14.63;;;12.60;99.90;;;;;;5011742;28;20297;-37
2022/05/06 06:45:37;;;;;;;18.03;14.40;;;12.50;99.90;;;;;;4981874;28;20273;-37
2022/05/06 06:48:22;;;;;;;17.90;14.13;;;12.60;99.90;;;;;;5013784;28;20193;-36
2022/05/06 06:51:15;;;;;;;15.50;12.93;;;12.50;99.90;;;;;;4987203;28;20182;-37
2022/05/06 06:53:53;;;;;;;17.33;13.97;;;12.70;99.90;;;;;;5013611;28;20258;-36
2022/05/06 06:56:20;;;;;;;16.80;14.03;;;12.80;99.90;;;;;;4996930;28;20231;-37
2022/05/06 06:58:46;;;;;;;16.67;13.47;;;12.70;99.90;;;;;;5014533;28;20170;-37
2022/05/06 07:01:12;;;;;;;16.27;13.77;;;12.60;99.90;;;;;;4996645;28;20268;-36
2022/05/06 07:03:38;;;;;;;16.53;13.00;;;12.50;99.90;;;;;;4996897;28;20217;-36
2022/05/06 07:14:16;;;;;;;16.03;14.27;;;12.50;99.90;;;;;;5013064;28;20271;-37
2022/05/06 07:16:43;;;;;;;18.37;15.17;;;12.40;99.90;;;;;;5014474;28;20177;-37
2022/05/06 07:19:09;;;;;;;18.77;13.90;;;12.30;99.90;;;;;;5014367;28;20177;-37
2022/05/06 07:21:35;;;;;;;16.53;14.30;;;12.40;99.90;;;;;;4996727;28;20181;-40
2022/05/06 07:24:02;;;;;;;17.97;14.57;;;12.30;99.90;;;;;;5012813;28;20284;-40
2022/05/06 07:26:28;;;;;;;16.50;14.20;;;12.40;99.90;;;;;;5013314;28;20225;-38
2022/05/06 07:28:54;;;;;;;17.83;14.13;;;12.40;99.90;;;;;;5012575;28;20225;-40
2022/05/06 07:31:20;;;;;;;17.53;13.53;;;12.40;99.90;;;;;;4996408;28;20277;-39
2022/05/06 07:33:45;;;;;;;17.37;14.50;;;12.40;99.90;;;;;;5012383;28;20186;-39
2022/05/06 07:36:11;;;;;;;16.53;13.27;;;12.40;99.90;;;;;;4996119;28;20221;-36
2022/05/06 07:38:37;;;;;;;17.73;13.80;;;12.40;99.90;;;;;;4995406;28;20265;-37
2022/05/06 07:41:04;;;;;;;16.90;13.83;;;12.40;99.90;;;;;;4984744;28;20187;-37
2022/05/06 07:43:30;;;;;;;18.20;13.40;;;12.40;99.90;;;;;;4985036;28;20174;-38
2022/05/06 07:45:56;;;;;;;17.37;13.83;;;12.30;99.90;;;;;;5002440;28;20276;-41
2022/05/06 07:48:22;;;;;;;16.93;13.17;;;12.30;99.90;;;;;;5003128;28;20262;-41
2022/05/06 07:50:48;;;;;;;16.50;13.80;;;12.30;99.90;;;;;;5001033;28;20704;-40
2022/05/06 07:53:15;;;;;;;16.30;12.83;;;12.30;99.90;;;;;;4986008;28;20193;-39
2022/05/06 07:55:42;;;;;;;17.00;13.80;;;12.30;99.90;;;;;;4986457;28;20206;-39
2022/05/06 07:58:09;;;;;;;16.90;13.37;;;12.40;99.90;;;;;;4984874;28;20181;-38
2022/05/06 08:00:36;;;;;;;14.97;13.07;;;12.30;99.90;;;;;;4982996;28;20260;-38
2022/05/06 08:05:47;;;;;;;15.63;11.93;;;12.40;99.90;;;;;;5000058;28;20281;-37
2022/05/06 08:08:14;;;;;;;16.57;12.90;;;12.50;99.90;;;;;;5000457;28;20197;-39
2022/05/06 08:10:40;;;;;;;15.50;12.70;;;12.50;99.90;;;;;;4984932;28;20278;-36
2022/05/06 08:13:06;;;;;;;17.60;12.63;;;12.60;99.90;;;;;;5001603;28;20183;-37
2022/05/06 08:15:33;;;;;;;17.67;12.70;;;12.70;99.90;;;;;;4986238;28;20217;-38
2022/05/06 08:17:59;;;;;;;18.03;13.03;;;12.70;99.90;;;;;;4984725;28;20263;-37
2022/05/06 08:20:26;;;;;;;13.37;11.40;;;12.70;99.90;;;;;;4985145;28;20207;-38
2022/05/06 08:22:52;;;;;;;12.73;10.77;;;12.70;99.90;;;;;;4984965;28;20188;-37
2022/05/06 08:25:19;;;;;;;12.80;11.03;;;12.80;99.90;;;;;;4984435;28;20294;-38
2022/05/06 08:27:45;;;;;;;14.30;10.93;;;12.90;99.90;;;;;;4985344;28;20266;-38
2022/05/06 08:30:13;;;;;;;13.77;10.17;;;13.10;99.90;;;;;;4984365;28;20275;-37
2022/05/06 08:32:40;;;;;;;13.37;10.13;;;13.10;99.90;;;;;;4983144;28;20183;-37
2022/05/06 08:35:08;;;;;;;11.93;9.07;;;13.20;99.90;;;;;;5000745;28;20202;-39
2022/05/06 08:37:45;;;;;;;10.23;8.83;;;13.30;99.90;;;;;;4985991;28;20179;-38
2022/05/06 08:40:22;;;;;;;11.37;8.87;;;13.30;99.90;;;;;;5001673;28;20182;-41
2022/05/06 08:42:49;;;;;;;11.67;8.30;;;13.30;99.90;;;;;;5002160;28;20175;-39
2022/05/06 08:50:57;;;;;;;12.83;8.80;;;13.50;99.90;;;;;;4996649;28;20176;-42
2022/05/06 08:53:26;;;;;;;10.53;8.53;;;13.60;99.90;;;;;;4986471;28;20265;-39
2022/05/06 08:55:57;;;;;;;10.17;8.30;;;13.60;99.90;;;;;;4993915;28;20215;-41
2022/05/06 08:58:28;;;;;;;8.17;7.30;;;13.50;99.90;;;;;;4991807;28;20187;-37
2022/05/06 09:01:02;;;;;;;10.77;8.80;;;13.60;99.90;;;;;;4989590;28;20195;-38
2022/05/06 09:03:29;;;;;;;9.03;8.13;;;13.60;99.90;;;;;;5011971;28;20257;-39
2022/05/06 09:05:58;;;;;;;11.67;7.93;;;13.70;99.90;;;;;;5010928;28;20238;-37
2022/05/06 09:08:36;;;;;;;9.40;7.83;;;13.90;99.90;;;;;;5010971;28;20251;-38
2022/05/06 09:11:07;;;;;;;9.20;7.30;;;14.00;99.90;;;;;;4994452;28;20205;-38
2022/05/06 09:13:49;;;;;;;8.70;6.70;;;14.20;99.90;;;;;;4994480;28;20181;-37
2022/05/06 09:16:40;;;;;;;7.13;6.37;;;14.40;99.90;;;;;;5010923;28;20272;-37
2022/05/06 09:19:12;;;;;;;10.97;7.20;;;14.40;99.90;;;;;;5012339;28;20183;-37
2022/05/06 09:21:58;;;;;;;7.93;6.03;;;14.50;99.90;;;;;;5010554;28;20179;-40
2022/05/06 09:24:27;;;;;;;8.57;6.67;;;14.60;99.90;;;;;;5010676;28;20609;-40
2022/05/06 09:26:57;;;;;;;9.83;6.57;;;14.70;99.90;;;;;;5012105;28;20179;-42
2022/05/06 09:29:27;;;;;;;7.73;6.87;;;14.80;99.90;;;;;;5010169;28;20171;-39
2022/05/06 09:31:54;;;;;;;11.00;6.33;;;14.90;99.90;;;;;;5010758;28;20190;-45
2022/05/06 09:34:28;;;;;;;9.37;6.63;;;14.90;99.90;;;;;;5010444;28;20245;-40
2022/05/06 09:36:54;;;;;;;7.83;6.27;;;15.00;99.90;;;;;;5009991;28;20198;-39
2022/05/06 09:39:22;;;;;;;8.87;6.87;;;15.10;99.90;;;;;;4980562;28;20188;-41
2022/05/06 09:41:49;;;;;;;10.13;7.23;;;15.10;99.90;;;;;;4999398;28;20225;-39
2022/05/06 09:44:22;;;;;;;7.30;5.90;;;15.00;99.90;;;;;;4992923;28;20260;-41
2022/05/06 09:47:15;;;;;;;9.03;6.33;;;15.10;99.90;;;;;;5009961;28;20183;-39
2022/05/06 09:49:43;;;;;;;6.77;6.07;;;15.20;99.90;;;;;;4993056;28;20186;-40
2022/05/06 09:52:14;;;;;;;7.13;6.30;;;15.30;99.90;;;;;;4993915;28;20179;-40
2022/05/06 09:54:41;;;;;;;9.40;6.63;;;15.40;99.90;;;;;;4989621;28;20334;-39
2022/05/06 09:57:09;;;;;;;10.17;6.20;;;15.30;99.90;;;;;;4990269;28;20184;-43
2022/05/06 09:59:36;;;;;;;8.07;6.60;;;15.30;99.90;;;;;;5009293;28;20179;-39
2022/05/06 10:02:04;;;;;;;7.87;5.90;;;15.50;99.90;;;;;;5002227;28;20211;-39
2022/05/06 10:04:31;;;;;;;8.13;5.60;;;15.60;99.90;;;;;;4983622;28;20301;-40
2022/05/06 10:07:05;;;;;;;8.10;5.97;;;15.70;99.90;;;;;;5001967;28;20188;-40
2022/05/06 10:09:44;;;;;;;7.20;6.23;;;15.90;99.90;;;;;;4999934;28;20214;-39
2022/05/06 10:12:13;;;;;;;7.10;5.63;;;16.00;99.90;;;;;;4999565;28;20183;-39
2022/05/06 10:14:41;;;;;;;6.40;5.47;;;16.00;99.90;;;;;;4984291;28;20222;-39
2022/05/06 10:17:09;;;;;;;6.63;5.13;;;16.10;99.90;;;;;;4998832;28;20183;-39
2022/05/06 10:19:39;;;;;;;7.63;5.37;;;16.10;99.90;;;;;;4982631;28;20274;-39
2022/05/06 10:22:05;;;;;;;7.10;5.50;;;16.20;99.90;;;;;;4989813;28;20286;-39
2022/05/06 10:24:40;;;;;;;9.50;6.03;;;16.30;99.90;;;;;;4974593;28;20235;-38
2022/05/06 10:33:18;;;;;;;7.53;5.38;;;16.80;99.90;;;;;;5009979;28;20214;-38
2022/05/06 10:35:47;;;;;;;8.80;5.47;;;17.00;99.90;;;;;;5009444;28;20222;-39
2022/05/06 10:38:24;;;;;;;7.10;5.03;;;17.20;99.90;;;;;;5010021;28;20194;-37
2022/05/06 10:40:54;;;;;;;6.43;4.72;;;17.40;99.90;;;;;;5009527;28;20182;-39
2022/05/06 10:43:41;;;;;;;7.22;5.32;;;17.50;99.90;;;;;;5009014;28;20207;-40
2022/05/06 10:46:10;;;;;;;9.90;5.47;;;17.60;99.90;;;;;;4979194;28;20179;-39
2022/05/06 10:48:37;;;;;;;6.68;5.22;;;17.50;99.90;;;;;;4983859;28;20217;-40
2022/05/06 10:51:24;;;;;;;6.38;5.75;;;17.50;99.90;;;;;;4982888;28;20211;-40
2022/05/06 10:53:50;;;;;;;6.47;5.32;;;17.60;99.90;;;;;;4997582;28;20245;-39
2022/05/06 10:56:16;;;;;;;6.65;5.00;;;17.60;99.90;;;;;;4984382;28;20210;-39
2022/05/06 10:58:42;;;;;;;10.43;5.32;;;17.80;99.90;;;;;;4998445;28;20182;-39
2022/05/06 11:01:16;;;;;;;6.18;5.38;;;18.00;99.90;;;;;;4987670;28;20195;-39
2022/05/06 11:03:54;;;;;;;7.25;5.68;;;18.00;99.90;;;;;;4999696;28;20180;-39
2022/05/06 11:06:21;;;;;;;9.00;5.55;;;18.10;99.90;;;;;;5007642;28;20197;-39
2022/05/06 11:08:48;;;;;;;8.20;5.18;;;18.20;99.90;;;;;;4998133;28;20200;-40
2022/05/06 11:11:19;;;;;;;7.35;5.57;;;18.40;99.90;;;;;;4982986;28;20258;-40
2022/05/06 11:13:47;;;;;;;5.28;4.78;;;18.30;99.90;;;;;;4993552;28;20211;-39
2022/05/06 11:16:15;;;;;;;9.40;5.90;;;18.40;99.90;;;;;;5004238;28;20204;-39
2022/05/06 11:18:43;;;;;;;7.07;5.65;;;18.50;99.90;;;;;;5003458;28;20233;-38
2022/05/06 11:21:22;;;;;;;9.70;6.75;;;18.50;99.90;;;;;;4996634;28;20179;-39
2022/05/06 11:23:49;;;;;;;6.95;4.93;;;18.40;99.90;;;;;;5014133;28;20172;-39
2022/05/06 11:26:29;;;;;;;7.40;5.40;;;18.40;99.90;;;;;;4996607;28;20191;-40
2022/05/06 11:29:02;;;;;;;8.65;5.45;;;18.40;99.90;;;;;;4996820;28;20186;-40
2022/05/06 11:31:28;;;;;;;6.05;5.43;;;18.40;99.90;;;;;;5012142;28;20195;-39
2022/05/06 11:34:01;;;;;;;6.75;5.43;;;18.40;99.90;;;;;;5013913;28;20206;-39
2022/05/06 11:36:27;;;;;;;7.60;5.20;;;18.30;99.90;;;;;;4996105;28;20207;-40
2022/05/06 11:38:53;;;;;;;7.53;5.53;;;18.20;99.90;;;;;;5012334;28;20179;-40
2022/05/06 11:41:18;;;;;;;7.70;5.55;;;18.30;99.90;;;;;;5012695;28;20171;-40
2022/05/06 11:43:46;;;;;;;5.70;4.80;;;18.40;99.90;;;;;;5012503;28;20171;-39
2022/05/06 11:49:05;;;;;;;7.72;5.35;;;18.60;99.90;;;;;;5006530;28;20218;-39
2022/05/06 11:51:37;;;;;;;6.90;5.50;;;18.60;99.90;;;;;;5005304;28;20187;-38
2022/05/06 11:54:05;;;;;;;8.60;5.70;;;18.70;99.90;;;;;;4986628;28;20198;-39
2022/05/06 11:56:35;;;;;;;6.43;5.00;;;18.70;99.90;;;;;;5001669;28;20219;-38
2022/05/06 11:59:03;;;;;;;8.15;5.65;;;18.80;99.90;;;;;;5002109;28;20176;-39
2022/05/06 12:01:33;;;;;;;6.68;5.97;;;18.90;99.90;;;;;;5003454;28;20199;-39
2022/05/06 12:04:04;;;;;;;8.45;5.97;;;18.90;99.90;;;;;;5008117;28;20211;-38
2022/05/06 12:06:38;;;;;;;6.28;5.07;;;18.90;99.90;;;;;;4991937;28;20215;-38
2022/05/06 12:09:11;;;;;;;5.90;5.30;;;18.90;99.90;;;;;;4986738;28;20179;-42
2022/05/06 12:11:37;;;;;;;5.65;5.15;;;18.70;99.90;;;;;;5002074;28;20212;-42
2022/05/06 12:14:17;;;;;;;9.85;6.25;;;18.60;99.90;;;;;;5001887;28;20259;-42
2022/05/06 12:17:03;;;;;;;8.95;6.47;;;18.50;99.90;;;;;;5004771;28;20183;-42
2022/05/06 12:19:39;;;;;;;8.68;6.50;;;18.40;99.90;;;;;;4983502;28;20641;-45
2022/05/06 12:22:10;;;;;;;6.93;5.45;;;18.40;99.90;;;;;;5003748;28;20233;-42
2022/05/06 12:24:45;;;;;;;7.38;5.85;;;18.40;99.90;;;;;;5004288;28;20204;-41
2022/05/06 12:27:12;;;;;;;6.60;5.55;;;18.50;99.90;;;;;;4998880;28;20199;-44
2022/05/06 12:29:41;;;;;;;8.52;6.00;;;18.50;99.90;;;;;;5000980;28;20183;-43
2022/05/06 12:32:07;;;;;;;7.70;5.88;;;18.60;99.90;;;;;;4985435;28;20176;-41
2022/05/06 12:34:33;;;;;;;6.97;5.90;;;18.70;99.90;;;;;;5002121;28;20703;-39
2022/05/06 12:37:15;;;;;;;8.13;5.57;;;18.90;99.90;;;;;;5000033;28;20183;-43
2022/05/06 12:39:48;;;;;;;9.38;6.43;;;19.00;99.90;;;;;;4986113;28;20180;-41
2022/05/06 12:42:14;;;;;;;7.68;6.15;;;19.00;99.90;;;;;;5001224;28;20179;-41
2022/05/06 12:44:43;;;;;;;6.55;5.88;;;19.10;99.90;;;;;;4986081;28;20207;-41
2022/05/06 12:50:09;;;;;;;8.23;5.82;;;19.10;99.90;;;;;;4999687;28;20206;-46
2022/05/06 12:52:38;;;;;;;8.02;6.15;;;19.10;99.90;;;;;;5003153;28;20172;-41
2022/05/06 12:55:06;;;;;;;6.40;5.20;;;19.20;99.90;;;;;;4992242;28;20210;-40
2022/05/06 12:57:32;;;;;;;6.68;5.45;;;19.20;99.90;;;;;;4998514;28;20226;-43
2022/05/06 12:59:59;;;;;;;6.50;5.70;;;19.20;99.90;;;;;;5000830;28;20225;-41
2022/05/06 13:02:25;;;;;;;6.72;6.03;;;19.20;99.90;;;;;;4988813;28;20184;-40
2022/05/06 13:04:52;;;;;;;8.23;5.55;;;19.20;99.90;;;;;;5006657;28;20219;-39
2022/05/06 13:07:17;;;;;;;7.75;6.55;;;19.20;99.90;;;;;;4992339;28;20207;-43
2022/05/06 13:09:43;;;;;;;7.47;5.97;;;19.20;99.90;;;;;;4989586;28;20172;-41
2022/05/06 13:12:10;;;;;;;7.68;5.60;;;19.10;99.90;;;;;;5002419;28;20183;-39
2022/05/06 13:14:36;;;;;;;7.40;6.35;;;19.10;99.90;;;;;;4990981;28;20715;-41
2022/05/06 13:17:02;;;;;;;7.63;5.78;;;19.10;99.90;;;;;;5003144;28;20184;-38
2022/05/06 13:19:29;;;;;;;6.30;5.70;;;19.20;99.90;;;;;;4988003;28;20187;-40
2022/05/06 13:21:56;;;;;;;7.68;6.20;;;19.20;99.90;;;;;;5006685;28;20220;-42
2022/05/06 13:24:23;;;;;;;7.85;6.90;;;19.40;99.90;;;;;;5015236;28;20210;-40